createdAt,value
2019-04-29T00:02:35.883Z,17.32
2019-04-29T00:05:40.348Z,19.02
2019-04-29T00:08:45.096Z,22.13
2019-04-29T00:11:49.343Z,20.23
2019-04-29T00:14:59.801Z,19.17
2019-04-29T00:18:09.176Z,18.55
2019-04-29T00:21:16.762Z,23.32
2019-04-29T00:24:21.067Z,18.45
2019-04-29T00:27:25.462Z,20.30
2019-04-29T00:30:29.808Z,19.62
2019-04-29T00:33:34.046Z,19.80
2019-04-29T00:36:48.665Z,22.48
2019-04-29T00:40:14.817Z,30.05
2019-04-29T00:43:50.160Z,40.95
2019-04-29T00:46:54.687Z,84.00
2019-04-29T00:49:58.988Z,21.70
2019-04-29T00:53:03.247Z,24.40
2019-04-29T00:56:07.731Z,23.18
2019-04-29T00:59:12.019Z,24.70
2019-04-29T01:02:16.463Z,18.95
2019-04-29T01:05:20.911Z,17.37
2019-04-29T01:08:25.365Z,15.88
2019-04-29T01:11:29.608Z,19.40
2019-04-29T01:14:33.825Z,19.98
2019-04-29T01:17:38.128Z,22.45
2019-04-29T01:20:42.507Z,21.37
2019-04-29T01:24:05.920Z,21.12
2019-04-29T01:27:24.091Z,22.70
2019-04-29T01:31:07.049Z,20.45
2019-04-29T01:34:17.260Z,22.10
2019-04-29T01:37:24.250Z,20.40
2019-04-29T01:40:37.755Z,21.90
2019-04-29T01:43:59.848Z,19.17
2019-04-29T01:47:04.354Z,19.60
2019-04-29T01:50:08.787Z,20.43
2019-04-29T01:53:12.962Z,19.45
2019-04-29T01:56:17.308Z,18.10
2019-04-29T01:59:21.642Z,19.27
2019-04-29T02:02:26.075Z,17.57
2019-04-29T02:05:30.259Z,18.10
2019-04-29T02:08:34.654Z,17.05
2019-04-29T02:11:39.384Z,17.35
2019-04-29T02:14:43.618Z,17.20
2019-04-29T02:17:47.809Z,19.02
2019-04-29T02:20:52.042Z,16.95
2019-04-29T02:24:01.898Z,15.78
2019-04-29T02:27:06.257Z,17.98
2019-04-29T02:30:10.956Z,14.07
2019-04-29T02:33:15.208Z,17.07
2019-04-29T02:36:19.544Z,17.20
2019-04-29T02:39:51.921Z,17.15
2019-04-29T02:43:02.247Z,19.55
2019-04-29T02:46:06.611Z,17.23
2019-04-29T02:49:10.892Z,16.87
2019-04-29T02:52:15.355Z,19.42
2019-04-29T02:55:25.770Z,20.23
2019-04-29T02:58:50.452Z,21.00
2019-04-29T03:02:05.468Z,19.12
2019-04-29T03:05:18.034Z,19.85
2019-04-29T03:08:22.302Z,18.48
2019-04-29T03:11:26.771Z,22.45
2019-04-29T03:14:30.958Z,23.32
2019-04-29T03:17:35.433Z,23.32
2019-04-29T03:20:48.995Z,21.05
2019-04-29T03:23:53.223Z,26.30
2019-04-29T03:26:57.447Z,23.10
2019-04-29T03:30:01.899Z,22.48
2019-04-29T03:33:06.254Z,24.60
2019-04-29T03:36:10.586Z,25.50
2019-04-29T03:39:14.958Z,23.57
2019-04-29T03:42:19.281Z,25.82
2019-04-29T03:45:23.544Z,23.90
2019-04-29T03:48:27.976Z,23.30
2019-04-29T03:51:32.214Z,23.65
2019-04-29T03:54:36.509Z,76.75
2019-04-29T03:57:40.917Z,187.12
2019-04-29T04:00:46.858Z,40.05
2019-04-29T04:04:01.686Z,140.75
2019-04-29T04:07:23.479Z,24.57
2019-04-29T04:10:27.819Z,22.80
2019-04-29T04:13:32.084Z,18.07
2019-04-29T04:16:54.292Z,15.75
2019-04-29T04:19:58.930Z,15.28
2019-04-29T04:23:03.223Z,18.62
2019-04-29T04:26:07.710Z,19.85
2019-04-29T04:29:11.969Z,21.52
2019-04-29T04:32:16.313Z,25.15
2019-04-29T04:35:20.603Z,33.48
2019-04-29T04:38:24.960Z,45.73
2019-04-29T04:41:29.334Z,32.73
2019-04-29T04:44:49.187Z,28.62
2019-04-29T04:47:53.611Z,115.50
2019-04-29T04:50:57.979Z,110.48
2019-04-29T04:54:02.324Z,273.75
2019-04-29T04:57:06.636Z,205.03
2019-04-29T05:00:20.038Z,315.73
2019-04-29T05:03:23.146Z,458.48
2019-04-29T05:06:27.362Z,434.50
2019-04-29T05:09:50.736Z,275.50
2019-04-29T05:12:55.022Z,362.75
2019-04-29T05:15:59.480Z,285.25
2019-04-29T05:19:03.762Z,454.53
2019-04-29T05:22:08.022Z,398.68
2019-04-29T05:25:12.358Z,474.60
2019-04-29T05:28:16.675Z,368.65
2019-04-29T05:31:20.910Z,478.75
2019-04-29T05:34:26.895Z,156.63
2019-04-29T05:37:40.583Z,366.77
2019-04-29T05:40:50.120Z,501.48
2019-04-29T05:44:05.077Z,308.23
2019-04-29T05:47:17.951Z,496.53
2019-04-29T05:50:39.932Z,373.87
2019-04-29T05:53:47.789Z,260.23
2019-04-29T05:56:52.935Z,340.92
2019-04-29T05:59:57.287Z,386.57
2019-04-29T06:03:01.582Z,279.93
2019-04-29T06:06:05.926Z,521.77
2019-04-29T06:09:11.488Z,228.30
2019-04-29T06:12:16.120Z,521.25
2019-04-29T06:15:20.466Z,320.33
2019-04-29T06:18:24.741Z,134.05
2019-04-29T06:21:28.983Z,366.57
2019-04-29T06:24:36.949Z,400.70
2019-04-29T06:27:39.253Z,199.35
2019-04-29T06:30:45.275Z,129.90
2019-04-29T06:33:49.564Z,147.85
2019-04-29T06:36:53.943Z,163.12
2019-04-29T06:39:58.285Z,129.93
2019-04-29T06:43:02.594Z,235.80
2019-04-29T06:46:06.907Z,122.00
2019-04-29T06:49:11.270Z,183.10
2019-04-29T06:52:15.578Z,549.85
2019-04-29T06:55:20.101Z,182.72
2019-04-29T06:58:24.330Z,220.02
2019-04-29T07:01:28.636Z,427.45
2019-04-29T07:04:38.415Z,110.60
2019-04-29T07:07:38.903Z,247.15
2019-04-29T07:10:43.094Z,99.00
2019-04-29T07:13:47.325Z,85.62
2019-04-29T07:16:51.519Z,71.82
2019-04-29T07:19:57.473Z,88.72
2019-04-29T07:23:02.491Z,80.00
2019-04-29T07:26:07.076Z,129.55
2019-04-29T07:29:11.450Z,75.47
2019-04-29T07:32:15.783Z,68.50
2019-04-29T07:35:20.146Z,61.20
2019-04-29T07:38:24.518Z,63.48
2019-04-29T07:41:28.845Z,61.37
2019-04-29T07:44:44.131Z,63.33
2019-04-29T07:47:56.207Z,58.95
2019-04-29T07:50:53.375Z,62.00
2019-04-29T07:53:57.748Z,57.93
2019-04-29T07:57:02.218Z,56.25
2019-04-29T08:00:08.591Z,55.80
2019-04-29T08:03:12.925Z,55.38
2019-04-29T08:06:17.833Z,51.90
2019-04-29T08:09:22.468Z,49.55
2019-04-29T08:12:27.254Z,49.55
2019-04-29T08:15:32.063Z,51.37
2019-04-29T08:18:36.673Z,50.90
2019-04-29T08:21:40.995Z,49.38
2019-04-29T08:24:45.816Z,47.03
2019-04-29T08:27:51.448Z,44.13
2019-04-29T08:30:55.829Z,42.10
2019-04-29T08:34:00.081Z,39.75
2019-04-29T08:37:04.371Z,38.65
2019-04-29T08:40:16.344Z,35.90
2019-04-29T08:43:26.180Z,35.13
2019-04-29T08:46:34.895Z,35.90
2019-04-29T08:49:39.289Z,36.73
2019-04-29T08:52:43.590Z,31.37
2019-04-29T08:55:47.970Z,30.90
2019-04-29T08:58:52.242Z,28.67
2019-04-29T09:01:56.669Z,29.87
2019-04-29T09:05:00.906Z,29.23
2019-04-29T09:08:05.296Z,24.27
2019-04-29T09:11:13.033Z,22.60
2019-04-29T09:14:15.538Z,29.82
2019-04-29T09:17:20.881Z,20.90
2019-04-29T09:20:25.448Z,21.87
2019-04-29T09:23:31.719Z,30.45
2019-04-29T09:26:44.442Z,27.70
2019-04-29T09:32:51.990Z,33.05
2019-04-29T09:35:56.328Z,55.50
2019-04-29T09:39:00.685Z,59.53
2019-04-29T09:42:13.501Z,44.42
2019-04-29T09:45:42.494Z,26.17
2019-04-29T09:48:46.857Z,36.10
2019-04-29T09:51:51.038Z,38.65
2019-04-29T09:54:55.389Z,48.85
2019-04-29T09:57:59.625Z,43.52
2019-04-29T10:01:20.923Z,45.60
2019-04-29T10:04:34.599Z,26.93
2019-04-29T10:07:38.870Z,29.95
2019-04-29T10:10:43.301Z,25.95
2019-04-29T10:13:47.611Z,25.37
2019-04-29T10:17:11.160Z,24.60
2019-04-29T10:20:29.291Z,24.67
2019-04-29T10:23:33.616Z,20.80
2019-04-29T10:26:38.048Z,20.43
2019-04-29T10:29:44.247Z,19.32
2019-04-29T10:32:48.750Z,23.00
2019-04-29T10:35:53.020Z,20.85
2019-04-29T10:39:00.939Z,20.37
2019-04-29T10:42:05.792Z,20.75
2019-04-29T10:45:33.817Z,20.30
2019-04-29T10:48:44.131Z,22.48
2019-04-29T10:51:48.608Z,21.62
2019-04-29T10:54:55.234Z,24.37
2019-04-29T10:57:59.401Z,18.77
2019-04-29T11:02:01.074Z,15.95
2019-04-29T11:05:07.869Z,19.17
2019-04-29T11:08:33.758Z,16.12
2019-04-29T11:11:39.580Z,19.42
2019-04-29T11:14:43.868Z,15.75
2019-04-29T11:17:48.299Z,15.75
2019-04-29T11:20:53.635Z,15.45
2019-04-29T11:24:11.499Z,15.68
2019-04-29T11:27:19.950Z,13.38
2019-04-29T11:30:26.429Z,12.65
2019-04-29T11:33:47.170Z,15.98
2019-04-29T11:36:51.403Z,16.20
2019-04-29T11:39:57.167Z,16.35
2019-04-29T11:43:01.858Z,16.05
2019-04-29T11:46:10.027Z,19.17
2019-04-29T11:49:14.093Z,18.25
2019-04-29T11:52:18.393Z,18.98
2019-04-29T11:55:22.780Z,16.20
2019-04-29T11:58:35.749Z,20.20
2019-04-29T12:01:55.733Z,15.48
2019-04-29T12:05:21.849Z,13.03
2019-04-29T12:08:28.983Z,13.75
2019-04-29T12:11:36.305Z,12.55
2019-04-29T12:14:47.727Z,12.30
2019-04-29T12:18:16.913Z,12.03
2019-04-29T12:21:28.386Z,13.22
2019-04-29T12:24:32.738Z,14.78
2019-04-29T12:27:37.147Z,13.72
2019-04-29T12:30:43.411Z,13.93
2019-04-29T12:33:53.801Z,15.05
2019-04-29T12:36:58.114Z,13.68
2019-04-29T12:40:24.710Z,12.68
2019-04-29T12:43:53.063Z,14.95
2019-04-29T12:47:26.300Z,15.05
2019-04-29T12:50:23.063Z,14.30
2019-04-29T12:53:27.516Z,15.32
2019-04-29T12:56:34.171Z,15.90
2019-04-29T12:59:38.470Z,19.17
2019-04-29T13:03:08.141Z,22.42
2019-04-29T13:06:39.005Z,18.32
2019-04-29T13:09:40.521Z,14.47
2019-04-29T13:12:46.208Z,14.93
2019-04-29T13:16:08.174Z,16.75
2019-04-29T13:19:20.433Z,16.23
2019-04-29T13:22:25.048Z,14.55
2019-04-29T13:25:29.317Z,20.43
2019-04-29T13:28:34.781Z,16.05
2019-04-29T13:31:39.835Z,15.08
2019-04-29T13:34:45.947Z,14.20
2019-04-29T13:37:50.475Z,14.23
2019-04-29T13:41:11.998Z,13.40
2019-04-29T13:44:05.345Z,13.65
2019-04-29T13:47:28.353Z,13.43
2019-04-29T13:50:39.200Z,14.75
2019-04-29T13:53:38.787Z,15.83
2019-04-29T13:56:55.466Z,16.87
2019-04-29T14:00:05.146Z,16.20
2019-04-29T14:03:28.531Z,12.50
2019-04-29T14:06:34.378Z,15.08
2019-04-29T14:09:39.289Z,12.28
2019-04-29T14:12:53.094Z,17.70
2019-04-29T14:15:50.903Z,11.30
2019-04-29T14:18:55.195Z,12.33
2019-04-29T14:21:59.586Z,12.50
2019-04-29T14:25:03.988Z,15.18
2019-04-29T14:28:08.359Z,13.55
2019-04-29T14:31:12.644Z,16.10
2019-04-29T14:34:23.506Z,13.83
2019-04-29T14:37:27.808Z,14.98
2019-04-29T14:40:32.181Z,14.07
2019-04-29T14:43:55.220Z,12.25
2019-04-29T14:47:09.710Z,13.35
2019-04-29T14:50:15.616Z,13.55
2019-04-29T14:53:24.101Z,14.28
2019-04-29T14:56:26.336Z,12.70
2019-04-29T14:59:30.669Z,13.98
2019-04-29T15:02:34.940Z,13.40
2019-04-29T15:05:39.321Z,12.90
2019-04-29T15:08:43.597Z,13.65
2019-04-29T15:11:58.779Z,16.52
2019-04-29T15:15:12.196Z,14.15
2019-04-29T15:18:47.573Z,11.80
2019-04-29T15:21:47.787Z,12.50
2019-04-29T15:24:52.174Z,14.03
2019-04-29T15:27:56.351Z,12.63
2019-04-29T15:31:00.671Z,14.45
2019-04-29T15:34:08.997Z,18.35
2019-04-29T15:37:10.970Z,12.73
2019-04-29T15:40:15.479Z,13.35
2019-04-29T15:43:24.479Z,15.90
2019-04-29T15:46:26.071Z,13.53
2019-04-29T15:49:30.452Z,14.28
2019-04-29T15:52:34.779Z,13.25
2019-04-29T15:55:41.013Z,13.25
2019-04-29T15:58:45.064Z,15.98
2019-04-29T16:01:49.410Z,15.00
2019-04-29T16:04:59.844Z,16.45
2019-04-29T16:08:21.811Z,19.92
2019-04-29T16:11:43.945Z,15.53
2019-04-29T16:14:49.167Z,15.60
2019-04-29T16:17:53.749Z,18.12
2019-04-29T16:20:58.157Z,18.27
2019-04-29T16:24:24.393Z,19.30
2019-04-29T16:27:10.352Z,16.87
2019-04-29T16:30:19.009Z,17.80
2019-04-29T16:33:21.776Z,19.30
2019-04-29T16:36:26.077Z,19.55
2019-04-29T16:39:33.234Z,18.92
2019-04-29T16:42:56.844Z,20.25
2019-04-29T16:46:08.980Z,17.80
2019-04-29T16:49:13.685Z,17.30
2019-04-29T16:52:17.963Z,17.23
2019-04-29T16:55:22.315Z,19.82
2019-04-29T16:58:26.688Z,17.60
2019-04-29T17:01:31.106Z,17.25
2019-04-29T17:04:35.719Z,18.50
2019-04-29T17:07:40.010Z,18.17
2019-04-29T17:11:11.902Z,21.48
2019-04-29T17:14:16.682Z,24.02
2019-04-29T17:17:28.942Z,19.85
2019-04-29T17:20:29.178Z,18.98
2019-04-29T17:23:33.500Z,19.80
2019-04-29T17:26:44.808Z,24.43
2019-04-29T17:30:08.046Z,20.82
2019-04-29T17:33:27.436Z,24.20
2019-04-29T17:36:25.845Z,22.02
2019-04-29T17:39:30.928Z,24.98
2019-04-29T17:42:37.143Z,23.20
2019-04-29T17:45:50.901Z,19.75
2019-04-29T17:49:22.154Z,21.23
2019-04-29T17:52:30.744Z,21.02
2019-04-29T17:55:46.548Z,24.57
2019-04-29T17:58:58.248Z,22.10
2019-04-29T18:02:32.638Z,20.02
2019-04-29T18:05:55.686Z,20.52
2019-04-29T18:09:05.745Z,20.68
2019-04-29T18:12:15.949Z,20.45
2019-04-29T18:15:22.495Z,23.87
2019-04-29T18:18:46.175Z,22.05
2019-04-29T18:22:14.743Z,23.95
2019-04-29T18:25:45.480Z,18.00
2019-04-29T18:28:50.115Z,18.15
2019-04-29T18:31:55.636Z,20.02
2019-04-29T18:35:00.041Z,16.50
2019-04-29T18:38:07.611Z,18.55
2019-04-29T18:41:10.543Z,19.12
2019-04-29T18:44:19.376Z,18.35
2019-04-29T18:47:23.071Z,18.32
2019-04-29T18:50:29.580Z,18.50
2019-04-29T18:53:35.439Z,21.12
2019-04-29T18:56:40.255Z,15.75
2019-04-29T18:59:45.796Z,16.37
2019-04-29T19:02:57.057Z,21.75
2019-04-29T19:05:57.939Z,18.15
2019-04-29T19:09:02.851Z,19.98
2019-04-29T19:12:07.489Z,20.80
2019-04-29T19:15:12.350Z,19.32
2019-04-29T19:18:20.756Z,19.90
2019-04-29T19:21:23.653Z,19.87
2019-04-29T19:24:31.500Z,18.20
2019-04-29T19:27:39.859Z,18.35
2019-04-29T19:30:41.314Z,16.82
2019-04-29T19:33:46.185Z,16.17
2019-04-29T19:36:54.940Z,15.32
2019-04-29T19:39:59.524Z,16.57
2019-04-29T19:43:02.742Z,17.80
2019-04-29T19:46:07.112Z,16.95
2019-04-29T19:49:11.535Z,13.08
2019-04-29T19:52:18.794Z,16.60
2019-04-29T19:55:22.053Z,17.98
2019-04-29T19:58:29.429Z,21.23
2019-04-29T20:01:33.357Z,18.20
2019-04-29T20:05:05.150Z,18.15
2019-04-29T20:08:09.576Z,19.67
2019-04-29T20:11:17.532Z,16.32
2019-04-29T20:14:26.555Z,14.33
2019-04-29T20:17:47.889Z,16.87
2019-04-29T20:20:53.864Z,17.70
2019-04-29T20:23:58.570Z,16.77
2019-04-29T20:27:03.896Z,18.17
2019-04-29T20:30:16.546Z,17.52
2019-04-29T20:33:16.115Z,17.00
2019-04-29T20:36:37.442Z,13.65
2019-04-29T20:39:26.672Z,20.25
2019-04-29T20:42:31.044Z,20.97
2019-04-29T20:45:35.668Z,17.48
2019-04-29T20:48:40.024Z,18.87
2019-04-29T20:51:49.620Z,20.27
2019-04-29T20:54:57.517Z,20.10
2019-04-29T20:57:58.333Z,19.80
2019-04-29T21:01:08.806Z,22.52
2019-04-29T21:04:10.404Z,21.60
2019-04-29T21:07:18.400Z,22.27
2019-04-29T21:10:21.572Z,19.75
2019-04-29T21:13:37.219Z,19.25
2019-04-29T21:16:44.299Z,24.12
2019-04-29T21:19:48.651Z,19.52
2019-04-29T21:22:59.340Z,21.70
2019-04-29T21:26:00.550Z,20.62
2019-04-29T21:29:05.496Z,21.45
2019-04-29T21:32:09.870Z,21.57
2019-04-29T21:35:36.828Z,21.73
2019-04-29T21:39:06.312Z,20.65
2019-04-29T21:42:17.619Z,27.62
2019-04-29T21:45:21.975Z,23.20
2019-04-29T21:48:33.325Z,20.40
2019-04-29T21:51:32.280Z,23.40
2019-04-29T21:54:36.592Z,21.37
2019-04-29T21:57:41.153Z,24.47
2019-04-29T22:00:45.663Z,23.30
2019-04-29T22:03:49.850Z,27.25
2019-04-29T22:06:55.632Z,24.82
2019-04-29T22:09:59.992Z,25.55
2019-04-29T22:13:05.074Z,25.30
2019-04-29T22:16:11.386Z,26.05
2019-04-29T22:19:17.607Z,27.45
2019-04-29T22:22:21.498Z,26.12
2019-04-29T22:25:25.863Z,28.92
2019-04-29T22:28:30.251Z,28.23
2019-04-29T22:31:38.194Z,24.40
2019-04-29T22:34:42.226Z,25.70
2019-04-29T22:37:46.801Z,28.80
2019-04-29T22:40:52.210Z,28.62
2019-04-29T22:44:00.688Z,27.70
2019-04-29T22:47:05.730Z,27.52
2019-04-29T22:50:10.059Z,24.55
2019-04-29T22:53:14.799Z,25.82
2019-04-29T22:56:19.307Z,24.47
2019-04-29T22:59:25.398Z,27.27
2019-04-29T23:02:30.017Z,24.00
2019-04-29T23:05:35.926Z,24.12
2019-04-29T23:08:40.305Z,24.90
2019-04-29T23:11:45.064Z,24.70
2019-04-29T23:14:50.800Z,24.75
2019-04-29T23:17:55.156Z,26.27
2019-04-29T23:21:21.591Z,26.85
2019-04-29T23:24:52.635Z,20.88
2019-04-29T23:27:57.106Z,20.92
2019-04-29T23:31:01.382Z,23.85
2019-04-29T23:34:05.838Z,21.10
2019-04-29T23:37:10.142Z,24.52
2019-04-29T23:40:14.470Z,28.92
2019-04-29T23:43:19.968Z,22.27
2019-04-29T23:46:24.690Z,23.50
2019-04-29T23:49:28.970Z,25.17
2019-04-29T23:52:33.238Z,21.77
2019-04-29T23:55:37.509Z,24.40
2019-04-29T23:58:47.565Z,25.77
